sensor_id;sensor_type;location;lat;lon;timestamp;temperature;humidity
25512;DHT22;13414;44.534;18.700;2022-07-23T00:00:29;20.20;99.90
25512;DHT22;13414;44.534;18.700;2022-07-23T00:02:57;20.10;99.90
25512;DHT22;13414;44.534;18.700;2022-07-23T00:05:26;20.10;99.90
25512;DHT22;13414;44.534;18.700;2022-07-23T00:07:53;20.10;99.90
25512;DHT22;13414;44.534;18.700;2022-07-23T00:10:20;20.10;99.90
25512;DHT22;13414;44.534;18.700;2022-07-23T00:12:49;20.10;99.90
25512;DHT22;13414;44.534;18.700;2022-07-23T00:15:16;20.10;99.90
25512;DHT22;13414;44.534;18.700;2022-07-23T00:17:43;20.00;99.90
25512;DHT22;13414;44.534;18.700;2022-07-23T00:20:11;20.00;99.90
25512;DHT22;13414;44.534;18.700;2022-07-23T00:22:47;20.00;99.90
25512;DHT22;13414;44.534;18.700;2022-07-23T00:25:14;19.90;99.90
25512;DHT22;13414;44.534;18.700;2022-07-23T00:27:41;19.90;99.90
25512;DHT22;13414;44.534;18.700;2022-07-23T00:30:11;19.90;99.90
25512;DHT22;13414;44.534;18.700;2022-07-23T00:32:46;19.80;99.90
25512;DHT22;13414;44.534;18.700;2022-07-23T00:35:13;19.80;99.90
25512;DHT22;13414;44.534;18.700;2022-07-23T00:37:41;19.80;99.90
25512;DHT22;13414;44.534;18.700;2022-07-23T00:40:11;19.70;99.90
25512;DHT22;13414;44.534;18.700;2022-07-23T00:42:38;19.70;99.90
25512;DHT22;13414;44.534;18.700;2022-07-23T00:45:07;19.60;99.90
25512;DHT22;13414;44.534;18.700;2022-07-23T00:47:35;19.60;99.90
25512;DHT22;13414;44.534;18.700;2022-07-23T00:50:06;19.60;99.90
25512;DHT22;13414;44.534;18.700;2022-07-23T00:52:35;19.60;99.90
25512;DHT22;13414;44.534;18.700;2022-07-23T00:55:03;19.40;99.90
25512;DHT22;13414;44.534;18.700;2022-07-23T00:57:33;19.40;99.90
25512;DHT22;13414;44.534;18.700;2022-07-23T01:00:00;19.40;99.90
25512;DHT22;13414;44.534;18.700;2022-07-23T01:02:28;19.40;99.90
25512;DHT22;13414;44.534;18.700;2022-07-23T01:04:55;19.40;99.90
25512;DHT22;13414;44.534;18.700;2022-07-23T01:07:23;19.40;99.90
25512;DHT22;13414;44.534;18.700;2022-07-23T01:09:51;19.30;99.90
25512;DHT22;13414;44.534;18.700;2022-07-23T01:12:19;19.30;99.90
25512;DHT22;13414;44.534;18.700;2022-07-23T01:14:54;19.20;99.90
25512;DHT22;13414;44.534;18.700;2022-07-23T01:17:22;19.20;99.90
25512;DHT22;13414;44.534;18.700;2022-07-23T01:19:49;19.20;99.90
25512;DHT22;13414;44.534;18.700;2022-07-23T01:22:20;19.20;99.90
25512;DHT22;13414;44.534;18.700;2022-07-23T01:24:49;19.20;99.90
25512;DHT22;13414;44.534;18.700;2022-07-23T01:27:21;19.20;99.90
25512;DHT22;13414;44.534;18.700;2022-07-23T01:29:54;19.20;99.90
25512;DHT22;13414;44.534;18.700;2022-07-23T01:32:22;19.20;99.90
25512;DHT22;13414;44.534;18.700;2022-07-23T01:34:49;19.10;99.90
25512;DHT22;13414;44.534;18.700;2022-07-23T01:37:17;19.10;99.90
25512;DHT22;13414;44.534;18.700;2022-07-23T01:39:44;19.00;99.90
25512;DHT22;13414;44.534;18.700;2022-07-23T01:42:14;19.00;99.90
25512;DHT22;13414;44.534;18.700;2022-07-23T01:44:41;18.90;99.90
25512;DHT22;13414;44.534;18.700;2022-07-23T01:47:15;18.90;99.90
25512;DHT22;13414;44.534;18.700;2022-07-23T01:49:43;18.90;99.90
25512;DHT22;13414;44.534;18.700;2022-07-23T01:52:29;18.90;99.90
25512;DHT22;13414;44.534;18.700;2022-07-23T01:54:56;18.90;99.90
25512;DHT22;13414;44.534;18.700;2022-07-23T01:57:25;18.80;99.90
25512;DHT22;13414;44.534;18.700;2022-07-23T01:59:52;18.80;99.90
25512;DHT22;13414;44.534;18.700;2022-07-23T02:02:21;18.70;99.90
25512;DHT22;13414;44.534;18.700;2022-07-23T02:04:48;18.70;99.90
25512;DHT22;13414;44.534;18.700;2022-07-23T02:07:17;18.70;99.90
25512;DHT22;13414;44.534;18.700;2022-07-23T02:09:44;18.60;99.90
25512;DHT22;13414;44.534;18.700;2022-07-23T02:12:12;18.50;99.90
25512;DHT22;13414;44.534;18.700;2022-07-23T02:14:41;18.50;99.90
25512;DHT22;13414;44.534;18.700;2022-07-23T02:17:08;18.60;99.90
25512;DHT22;13414;44.534;18.700;2022-07-23T02:19:36;18.60;99.90
25512;DHT22;13414;44.534;18.700;2022-07-23T02:22:03;18.60;99.90
25512;DHT22;13414;44.534;18.700;2022-07-23T02:24:30;18.70;99.90
25512;DHT22;13414;44.534;18.700;2022-07-23T02:26:58;18.60;99.90
25512;DHT22;13414;44.534;18.700;2022-07-23T02:29:25;18.60;99.90
25512;DHT22;13414;44.534;18.700;2022-07-23T02:31:55;18.60;99.90
25512;DHT22;13414;44.534;18.700;2022-07-23T02:34:23;18.50;99.90
25512;DHT22;13414;44.534;18.700;2022-07-23T02:36:50;18.50;99.90
25512;DHT22;13414;44.534;18.700;2022-07-23T02:39:17;18.40;99.90
25512;DHT22;13414;44.534;18.700;2022-07-23T02:41:45;18.40;99.90
25512;DHT22;13414;44.534;18.700;2022-07-23T02:44:12;18.40;99.90
25512;DHT22;13414;44.534;18.700;2022-07-23T02:46:42;18.40;99.90
25512;DHT22;13414;44.534;18.700;2022-07-23T02:49:11;18.40;99.90
25512;DHT22;13414;44.534;18.700;2022-07-23T02:51:38;18.30;99.90
25512;DHT22;13414;44.534;18.700;2022-07-23T02:54:08;18.30;99.90
25512;DHT22;13414;44.534;18.700;2022-07-23T02:56:36;18.20;99.90
25512;DHT22;13414;44.534;18.700;2022-07-23T02:59:03;18.20;99.90
25512;DHT22;13414;44.534;18.700;2022-07-23T03:01:31;18.20;99.90
25512;DHT22;13414;44.534;18.700;2022-07-23T03:03:59;18.20;99.90
25512;DHT22;13414;44.534;18.700;2022-07-23T03:06:27;18.20;99.90
25512;DHT22;13414;44.534;18.700;2022-07-23T03:08:55;18.20;99.90
25512;DHT22;13414;44.534;18.700;2022-07-23T03:11:22;18.30;99.90
25512;DHT22;13414;44.534;18.700;2022-07-23T03:13:50;18.20;99.90
25512;DHT22;13414;44.534;18.700;2022-07-23T03:16:17;18.20;99.90
25512;DHT22;13414;44.534;18.700;2022-07-23T03:18:44;18.20;99.90
25512;DHT22;13414;44.534;18.700;2022-07-23T03:21:11;18.10;99.90
25512;DHT22;13414;44.534;18.700;2022-07-23T03:23:40;18.10;99.90
25512;DHT22;13414;44.534;18.700;2022-07-23T03:26:07;18.20;99.90
25512;DHT22;13414;44.534;18.700;2022-07-23T03:28:35;18.20;99.90
25512;DHT22;13414;44.534;18.700;2022-07-23T03:31:05;18.20;99.90
25512;DHT22;13414;44.534;18.700;2022-07-23T03:33:32;18.20;99.90
25512;DHT22;13414;44.534;18.700;2022-07-23T03:35:59;18.20;99.90
25512;DHT22;13414;44.534;18.700;2022-07-23T03:38:30;18.20;99.90
25512;DHT22;13414;44.534;18.700;2022-07-23T03:40:59;18.30;99.90
25512;DHT22;13414;44.534;18.700;2022-07-23T03:43:27;18.30;99.90
25512;DHT22;13414;44.534;18.700;2022-07-23T03:45:54;18.40;99.90
25512;DHT22;13414;44.534;18.700;2022-07-23T03:48:21;18.30;99.90
25512;DHT22;13414;44.534;18.700;2022-07-23T03:50:49;18.40;99.90
25512;DHT22;13414;44.534;18.700;2022-07-23T03:53:17;18.40;99.90
25512;DHT22;13414;44.534;18.700;2022-07-23T03:55:46;18.40;99.90
25512;DHT22;13414;44.534;18.700;2022-07-23T03:58:15;18.50;99.90
25512;DHT22;13414;44.534;18.700;2022-07-23T04:00:43;18.70;99.90
25512;DHT22;13414;44.534;18.700;2022-07-23T04:03:10;19.20;99.90
25512;DHT22;13414;44.534;18.700;2022-07-23T04:05:38;19.70;99.90
25512;DHT22;13414;44.534;18.700;2022-07-23T04:08:07;20.20;99.90
25512;DHT22;13414;44.534;18.700;2022-07-23T04:10:38;20.60;99.90
25512;DHT22;13414;44.534;18.700;2022-07-23T04:13:07;21.00;99.90
25512;DHT22;13414;44.534;18.700;2022-07-23T04:15:36;21.20;99.90
25512;DHT22;13414;44.534;18.700;2022-07-23T04:18:05;21.70;99.90
25512;DHT22;13414;44.534;18.700;2022-07-23T04:20:43;21.80;99.90
25512;DHT22;13414;44.534;18.700;2022-07-23T04:23:10;22.00;99.90
25512;DHT22;13414;44.534;18.700;2022-07-23T04:25:38;22.50;99.90
25512;DHT22;13414;44.534;18.700;2022-07-23T04:28:07;23.00;99.90
25512;DHT22;13414;44.534;18.700;2022-07-23T04:30:37;23.30;99.90
25512;DHT22;13414;44.534;18.700;2022-07-23T04:33:06;23.50;99.90
25512;DHT22;13414;44.534;18.700;2022-07-23T04:35:36;23.50;99.90
25512;DHT22;13414;44.534;18.700;2022-07-23T04:38:12;23.70;99.90
25512;DHT22;13414;44.534;18.700;2022-07-23T04:40:40;24.10;99.90
25512;DHT22;13414;44.534;18.700;2022-07-23T04:43:07;24.50;99.90
25512;DHT22;13414;44.534;18.700;2022-07-23T04:45:44;24.90;99.90
25512;DHT22;13414;44.534;18.700;2022-07-23T04:48:12;25.00;99.90
25512;DHT22;13414;44.534;18.700;2022-07-23T04:50:40;25.40;99.90
25512;DHT22;13414;44.534;18.700;2022-07-23T04:53:15;25.30;99.90
25512;DHT22;13414;44.534;18.700;2022-07-23T04:55:43;25.70;99.90
25512;DHT22;13414;44.534;18.700;2022-07-23T04:58:11;25.70;99.90
25512;DHT22;13414;44.534;18.700;2022-07-23T05:00:38;25.90;99.90
25512;DHT22;13414;44.534;18.700;2022-07-23T05:03:07;26.20;99.90
25512;DHT22;13414;44.534;18.700;2022-07-23T05:05:38;25.60;99.90
25512;DHT22;13414;44.534;18.700;2022-07-23T05:08:11;25.10;99.90
25512;DHT22;13414;44.534;18.700;2022-07-23T05:10:40;24.70;99.90
25512;DHT22;13414;44.534;18.700;2022-07-23T05:13:08;24.50;99.90
25512;DHT22;13414;44.534;18.700;2022-07-23T05:15:35;25.00;99.90
25512;DHT22;13414;44.534;18.700;2022-07-23T05:18:03;26.20;99.90
25512;DHT22;13414;44.534;18.700;2022-07-23T05:20:33;27.20;99.90
25512;DHT22;13414;44.534;18.700;2022-07-23T05:23:00;28.00;99.90
25512;DHT22;13414;44.534;18.700;2022-07-23T05:25:28;28.60;99.90
25512;DHT22;13414;44.534;18.700;2022-07-23T05:27:56;28.90;99.90
25512;DHT22;13414;44.534;18.700;2022-07-23T05:30:23;29.20;99.90
25512;DHT22;13414;44.534;18.700;2022-07-23T05:32:56;29.60;99.90
25512;DHT22;13414;44.534;18.700;2022-07-23T05:35:24;29.90;99.90
25512;DHT22;13414;44.534;18.700;2022-07-23T05:38:18;30.10;99.90
25512;DHT22;13414;44.534;18.700;2022-07-23T05:40:46;30.30;97.40
25512;DHT22;13414;44.534;18.700;2022-07-23T05:43:13;30.40;95.80
25512;DHT22;13414;44.534;18.700;2022-07-23T05:45:41;30.30;95.80
25512;DHT22;13414;44.534;18.700;2022-07-23T05:48:09;30.30;94.60
25512;DHT22;13414;44.534;18.700;2022-07-23T05:50:46;30.00;94.60
25512;DHT22;13414;44.534;18.700;2022-07-23T05:53:28;29.90;94.30
25512;DHT22;13414;44.534;18.700;2022-07-23T05:55:58;29.80;94.70
25512;DHT22;13414;44.534;18.700;2022-07-23T05:58:25;29.40;95.60
25512;DHT22;13414;44.534;18.700;2022-07-23T06:00:53;29.30;97.70
25512;DHT22;13414;44.534;18.700;2022-07-23T06:03:20;28.90;96.80
25512;DHT22;13414;44.534;18.700;2022-07-23T06:05:47;28.90;95.80
25512;DHT22;13414;44.534;18.700;2022-07-23T06:08:16;28.80;95.80
25512;DHT22;13414;44.534;18.700;2022-07-23T06:10:45;28.70;96.00
25512;DHT22;13414;44.534;18.700;2022-07-23T06:13:12;28.80;95.30
25512;DHT22;13414;44.534;18.700;2022-07-23T06:15:41;29.00;95.10
25512;DHT22;13414;44.534;18.700;2022-07-23T06:18:08;29.20;95.00
25512;DHT22;13414;44.534;18.700;2022-07-23T06:20:35;29.40;95.00
25512;DHT22;13414;44.534;18.700;2022-07-23T06:23:03;29.50;94.60
25512;DHT22;13414;44.534;18.700;2022-07-23T06:25:30;29.70;93.90
25512;DHT22;13414;44.534;18.700;2022-07-23T06:27:59;29.90;93.40
25512;DHT22;13414;44.534;18.700;2022-07-23T06:30:27;30.10;92.70
25512;DHT22;13414;44.534;18.700;2022-07-23T06:32:54;30.10;91.30
25512;DHT22;13414;44.534;18.700;2022-07-23T06:35:21;30.10;91.10
25512;DHT22;13414;44.534;18.700;2022-07-23T06:37:48;30.20;91.10
25512;DHT22;13414;44.534;18.700;2022-07-23T06:40:16;30.30;90.60
25512;DHT22;13414;44.534;18.700;2022-07-23T06:42:43;30.20;90.60
25512;DHT22;13414;44.534;18.700;2022-07-23T06:45:18;30.00;90.20
25512;DHT22;13414;44.534;18.700;2022-07-23T06:47:46;29.90;90.00
25512;DHT22;13414;44.534;18.700;2022-07-23T06:50:14;29.80;89.50
25512;DHT22;13414;44.534;18.700;2022-07-23T06:52:42;29.90;87.60
25512;DHT22;13414;44.534;18.700;2022-07-23T06:55:10;29.70;85.60
25512;DHT22;13414;44.534;18.700;2022-07-23T06:57:37;29.50;87.00
25512;DHT22;13414;44.534;18.700;2022-07-23T07:00:07;29.50;86.80
25512;DHT22;13414;44.534;18.700;2022-07-23T07:02:35;29.50;86.70
25512;DHT22;13414;44.534;18.700;2022-07-23T07:05:05;29.70;86.90
25512;DHT22;13414;44.534;18.700;2022-07-23T07:07:32;30.20;86.00
25512;DHT22;13414;44.534;18.700;2022-07-23T07:09:59;30.50;84.00
25512;DHT22;13414;44.534;18.700;2022-07-23T07:12:27;31.00;83.00
25512;DHT22;13414;44.534;18.700;2022-07-23T07:14:54;31.30;81.10
25512;DHT22;13414;44.534;18.700;2022-07-23T07:17:22;31.60;80.00
25512;DHT22;13414;44.534;18.700;2022-07-23T07:19:51;32.10;78.30
25512;DHT22;13414;44.534;18.700;2022-07-23T07:22:18;32.30;76.70
25512;DHT22;13414;44.534;18.700;2022-07-23T07:24:45;32.50;75.30
25512;DHT22;13414;44.534;18.700;2022-07-23T07:27:13;32.40;72.90
25512;DHT22;13414;44.534;18.700;2022-07-23T07:29:40;32.40;73.00
25512;DHT22;13414;44.534;18.700;2022-07-23T07:32:07;32.40;72.30
25512;DHT22;13414;44.534;18.700;2022-07-23T07:34:35;32.10;72.10
25512;DHT22;13414;44.534;18.700;2022-07-23T07:37:04;32.10;72.60
25512;DHT22;13414;44.534;18.700;2022-07-23T07:39:31;32.30;71.90
25512;DHT22;13414;44.534;18.700;2022-07-23T07:41:58;32.50;70.10
25512;DHT22;13414;44.534;18.700;2022-07-23T07:44:25;32.60;69.00
25512;DHT22;13414;44.534;18.700;2022-07-23T07:46:53;32.30;68.40
25512;DHT22;13414;44.534;18.700;2022-07-23T07:49:20;32.20;69.20
25512;DHT22;13414;44.534;18.700;2022-07-23T07:51:48;32.40;68.20
25512;DHT22;13414;44.534;18.700;2022-07-23T07:54:17;32.20;67.80
25512;DHT22;13414;44.534;18.700;2022-07-23T07:56:44;32.30;66.90
25512;DHT22;13414;44.534;18.700;2022-07-23T07:59:12;32.40;65.40
25512;DHT22;13414;44.534;18.700;2022-07-23T08:01:40;32.50;65.40
25512;DHT22;13414;44.534;18.700;2022-07-23T08:04:07;32.80;65.20
25512;DHT22;13414;44.534;18.700;2022-07-23T08:06:35;33.20;62.70
25512;DHT22;13414;44.534;18.700;2022-07-23T08:09:02;33.30;60.90
25512;DHT22;13414;44.534;18.700;2022-07-23T08:11:31;33.40;59.80
25512;DHT22;13414;44.534;18.700;2022-07-23T08:13:58;33.40;60.30
25512;DHT22;13414;44.534;18.700;2022-07-23T08:16:26;33.50;60.00
25512;DHT22;13414;44.534;18.700;2022-07-23T08:18:53;33.50;60.30
25512;DHT22;13414;44.534;18.700;2022-07-23T08:21:21;33.50;60.50
25512;DHT22;13414;44.534;18.700;2022-07-23T08:23:48;33.30;60.70
25512;DHT22;13414;44.534;18.700;2022-07-23T08:26:15;33.70;59.90
25512;DHT22;13414;44.534;18.700;2022-07-23T08:28:44;34.00;59.90
25512;DHT22;13414;44.534;18.700;2022-07-23T08:31:11;34.30;59.50
25512;DHT22;13414;44.534;18.700;2022-07-23T08:33:41;34.50;59.30
25512;DHT22;13414;44.534;18.700;2022-07-23T08:36:08;34.60;59.10
25512;DHT22;13414;44.534;18.700;2022-07-23T08:38:36;34.70;59.00
25512;DHT22;13414;44.534;18.700;2022-07-23T08:41:03;34.80;59.40
25512;DHT22;13414;44.534;18.700;2022-07-23T08:43:32;34.90;59.70
25512;DHT22;13414;44.534;18.700;2022-07-23T08:46:03;34.90;59.60
25512;DHT22;13414;44.534;18.700;2022-07-23T08:48:31;35.00;59.20
25512;DHT22;13414;44.534;18.700;2022-07-23T08:51:00;35.20;58.80
25512;DHT22;13414;44.534;18.700;2022-07-23T08:53:29;35.20;58.90
25512;DHT22;13414;44.534;18.700;2022-07-23T08:55:58;35.30;59.50
25512;DHT22;13414;44.534;18.700;2022-07-23T08:58:27;35.30;57.70
25512;DHT22;13414;44.534;18.700;2022-07-23T09:00:55;35.10;57.20
25512;DHT22;13414;44.534;18.700;2022-07-23T09:03:25;35.20;57.60
25512;DHT22;13414;44.534;18.700;2022-07-23T09:05:54;35.40;57.10
25512;DHT22;13414;44.534;18.700;2022-07-23T09:08:23;35.40;56.10
25512;DHT22;13414;44.534;18.700;2022-07-23T09:10:52;35.40;55.40
25512;DHT22;13414;44.534;18.700;2022-07-23T09:13:25;35.40;54.50
25512;DHT22;13414;44.534;18.700;2022-07-23T09:15:55;35.40;53.90
25512;DHT22;13414;44.534;18.700;2022-07-23T09:18:33;35.40;53.00
25512;DHT22;13414;44.534;18.700;2022-07-23T09:21:18;35.30;51.00
25512;DHT22;13414;44.534;18.700;2022-07-23T09:23:48;35.30;50.50
25512;DHT22;13414;44.534;18.700;2022-07-23T09:26:27;35.50;49.50
25512;DHT22;13414;44.534;18.700;2022-07-23T09:29:06;35.70;49.30
25512;DHT22;13414;44.534;18.700;2022-07-23T09:34:20;36.00;49.40
25512;DHT22;13414;44.534;18.700;2022-07-23T09:36:48;36.00;48.40
25512;DHT22;13414;44.534;18.700;2022-07-23T09:39:21;36.10;48.80
25512;DHT22;13414;44.534;18.700;2022-07-23T09:41:49;36.30;48.90
25512;DHT22;13414;44.534;18.700;2022-07-23T09:44:18;36.20;49.60
25512;DHT22;13414;44.534;18.700;2022-07-23T09:46:47;36.10;50.30
25512;DHT22;13414;44.534;18.700;2022-07-23T09:49:17;36.10;50.30
25512;DHT22;13414;44.534;18.700;2022-07-23T09:51:51;36.30;49.30
25512;DHT22;13414;44.534;18.700;2022-07-23T09:54:27;36.30;49.80
25512;DHT22;13414;44.534;18.700;2022-07-23T09:56:57;36.40;50.00
25512;DHT22;13414;44.534;18.700;2022-07-23T09:59:27;36.30;49.70
25512;DHT22;13414;44.534;18.700;2022-07-23T10:01:57;36.20;49.60
25512;DHT22;13414;44.534;18.700;2022-07-23T10:04:26;36.10;49.90
25512;DHT22;13414;44.534;18.700;2022-07-23T10:07:17;36.20;49.90
25512;DHT22;13414;44.534;18.700;2022-07-23T10:10:06;36.10;50.80
25512;DHT22;13414;44.534;18.700;2022-07-23T10:12:43;36.40;50.50
25512;DHT22;13414;44.534;18.700;2022-07-23T10:15:43;36.50;50.40
25512;DHT22;13414;44.534;18.700;2022-07-23T10:18:13;36.70;49.90
25512;DHT22;13414;44.534;18.700;2022-07-23T10:20:40;36.70;50.10
25512;DHT22;13414;44.534;18.700;2022-07-23T10:23:16;36.60;49.70
25512;DHT22;13414;44.534;18.700;2022-07-23T10:25:51;36.70;47.50
25512;DHT22;13414;44.534;18.700;2022-07-23T10:28:32;36.80;45.60
25512;DHT22;13414;44.534;18.700;2022-07-23T10:31:13;36.90;45.30
25512;DHT22;13414;44.534;18.700;2022-07-23T10:33:49;36.80;45.80
25512;DHT22;13414;44.534;18.700;2022-07-23T10:36:23;36.80;45.70
25512;DHT22;13414;44.534;18.700;2022-07-23T10:39:04;36.90;46.40
25512;DHT22;13414;44.534;18.700;2022-07-23T10:41:33;37.10;46.70
25512;DHT22;13414;44.534;18.700;2022-07-23T10:44:09;37.20;46.00
25512;DHT22;13414;44.534;18.700;2022-07-23T10:46:54;37.30;45.70
25512;DHT22;13414;44.534;18.700;2022-07-23T10:49:27;37.20;45.70
25512;DHT22;13414;44.534;18.700;2022-07-23T10:52:19;37.30;45.60
25512;DHT22;13414;44.534;18.700;2022-07-23T10:54:50;37.40;44.90
25512;DHT22;13414;44.534;18.700;2022-07-23T10:57:18;37.50;44.00
25512;DHT22;13414;44.534;18.700;2022-07-23T11:00:20;37.50;43.50
25512;DHT22;13414;44.534;18.700;2022-07-23T11:02:49;37.50;43.20
25512;DHT22;13414;44.534;18.700;2022-07-23T11:05:19;37.50;42.70
25512;DHT22;13414;44.534;18.700;2022-07-23T11:11:07;37.30;43.10
25512;DHT22;13414;44.534;18.700;2022-07-23T11:13:53;37.40;42.50
25512;DHT22;13414;44.534;18.700;2022-07-23T11:16:24;37.50;42.00
25512;DHT22;13414;44.534;18.700;2022-07-23T11:19:00;37.40;41.50
25512;DHT22;13414;44.534;18.700;2022-07-23T11:21:46;37.40;42.30
25512;DHT22;13414;44.534;18.700;2022-07-23T11:24:16;37.50;41.00
25512;DHT22;13414;44.534;18.700;2022-07-23T11:26:48;37.60;40.10
25512;DHT22;13414;44.534;18.700;2022-07-23T11:29:38;37.60;41.00
25512;DHT22;13414;44.534;18.700;2022-07-23T11:32:07;37.50;39.60
25512;DHT22;13414;44.534;18.700;2022-07-23T11:34:39;37.40;39.60
25512;DHT22;13414;44.534;18.700;2022-07-23T11:37:08;37.50;39.80
25512;DHT22;13414;44.534;18.700;2022-07-23T11:39:36;37.50;40.20
25512;DHT22;13414;44.534;18.700;2022-07-23T11:42:07;37.60;40.30
25512;DHT22;13414;44.534;18.700;2022-07-23T11:44:35;37.70;40.20
25512;DHT22;13414;44.534;18.700;2022-07-23T11:47:05;37.80;39.80
25512;DHT22;13414;44.534;18.700;2022-07-23T11:49:33;37.70;39.30
25512;DHT22;13414;44.534;18.700;2022-07-23T11:52:04;37.70;39.20
25512;DHT22;13414;44.534;18.700;2022-07-23T11:54:32;37.60;38.80
25512;DHT22;13414;44.534;18.700;2022-07-23T11:57:00;37.70;39.30
25512;DHT22;13414;44.534;18.700;2022-07-23T11:59:32;37.70;38.40
25512;DHT22;13414;44.534;18.700;2022-07-23T12:02:00;37.70;38.20
25512;DHT22;13414;44.534;18.700;2022-07-23T12:04:37;37.80;38.20
25512;DHT22;13414;44.534;18.700;2022-07-23T12:07:08;37.70;37.90
25512;DHT22;13414;44.534;18.700;2022-07-23T12:09:49;37.50;37.50
25512;DHT22;13414;44.534;18.700;2022-07-23T12:12:16;37.50;38.10
25512;DHT22;13414;44.534;18.700;2022-07-23T12:14:53;37.50;36.60
25512;DHT22;13414;44.534;18.700;2022-07-23T12:17:27;37.60;37.00
25512;DHT22;13414;44.534;18.700;2022-07-23T12:19:56;37.60;35.20
25512;DHT22;13414;44.534;18.700;2022-07-23T12:22:25;37.70;34.40
25512;DHT22;13414;44.534;18.700;2022-07-23T12:24:57;37.70;33.30
25512;DHT22;13414;44.534;18.700;2022-07-23T12:27:25;37.50;33.80
25512;DHT22;13414;44.534;18.700;2022-07-23T12:29:54;37.40;33.40
25512;DHT22;13414;44.534;18.700;2022-07-23T12:32:23;37.40;34.40
25512;DHT22;13414;44.534;18.700;2022-07-23T12:35:03;37.60;34.30
25512;DHT22;13414;44.534;18.700;2022-07-23T12:37:32;37.60;33.80
25512;DHT22;13414;44.534;18.700;2022-07-23T12:43:04;37.50;33.70
25512;DHT22;13414;44.534;18.700;2022-07-23T12:45:45;37.60;33.90
25512;DHT22;13414;44.534;18.700;2022-07-23T12:48:22;37.70;34.10
25512;DHT22;13414;44.534;18.700;2022-07-23T12:50:55;37.70;34.50
25512;DHT22;13414;44.534;18.700;2022-07-23T12:53:25;37.80;33.90
25512;DHT22;13414;44.534;18.700;2022-07-23T12:56:00;37.70;34.40
25512;DHT22;13414;44.534;18.700;2022-07-23T12:58:40;37.80;34.20
25512;DHT22;13414;44.534;18.700;2022-07-23T13:01:10;37.80;34.20
25512;DHT22;13414;44.534;18.700;2022-07-23T13:03:59;37.90;34.30
25512;DHT22;13414;44.534;18.700;2022-07-23T13:06:27;37.90;34.30
25512;DHT22;13414;44.534;18.700;2022-07-23T13:08:55;37.70;34.30
25512;DHT22;13414;44.534;18.700;2022-07-23T13:11:23;37.70;34.90
25512;DHT22;13414;44.534;18.700;2022-07-23T13:13:50;37.60;35.20
25512;DHT22;13414;44.534;18.700;2022-07-23T13:16:19;37.60;35.40
25512;DHT22;13414;44.534;18.700;2022-07-23T13:18:46;37.50;35.60
25512;DHT22;13414;44.534;18.700;2022-07-23T13:21:14;37.50;35.90
25512;DHT22;13414;44.534;18.700;2022-07-23T13:23:42;37.70;36.20
25512;DHT22;13414;44.534;18.700;2022-07-23T13:26:09;37.80;37.40
25512;DHT22;13414;44.534;18.700;2022-07-23T13:28:37;37.90;35.70
25512;DHT22;13414;44.534;18.700;2022-07-23T13:31:04;38.00;35.90
25512;DHT22;13414;44.534;18.700;2022-07-23T13:33:33;38.00;35.20
25512;DHT22;13414;44.534;18.700;2022-07-23T13:36:00;37.90;34.90
25512;DHT22;13414;44.534;18.700;2022-07-23T13:38:28;37.90;35.20
25512;DHT22;13414;44.534;18.700;2022-07-23T13:40:55;37.80;35.60
25512;DHT22;13414;44.534;18.700;2022-07-23T13:43:24;37.80;35.60
25512;DHT22;13414;44.534;18.700;2022-07-23T13:45:52;37.90;36.00
25512;DHT22;13414;44.534;18.700;2022-07-23T13:48:20;37.90;35.80
25512;DHT22;13414;44.534;18.700;2022-07-23T13:50:50;37.80;35.90
25512;DHT22;13414;44.534;18.700;2022-07-23T13:53:18;37.80;35.70
25512;DHT22;13414;44.534;18.700;2022-07-23T13:55:47;37.90;35.60
25512;DHT22;13414;44.534;18.700;2022-07-23T13:58:14;37.90;35.60
25512;DHT22;13414;44.534;18.700;2022-07-23T14:00:45;37.80;35.60
25512;DHT22;13414;44.534;18.700;2022-07-23T14:03:12;37.80;35.30
25512;DHT22;13414;44.534;18.700;2022-07-23T14:05:40;37.60;35.10
25512;DHT22;13414;44.534;18.700;2022-07-23T14:08:09;37.60;35.60
25512;DHT22;13414;44.534;18.700;2022-07-23T14:10:37;37.70;35.70
25512;DHT22;13414;44.534;18.700;2022-07-23T14:13:04;37.80;35.70
25512;DHT22;13414;44.534;18.700;2022-07-23T14:15:33;37.80;36.00
25512;DHT22;13414;44.534;18.700;2022-07-23T14:18:00;37.80;35.70
25512;DHT22;13414;44.534;18.700;2022-07-23T14:20:28;37.80;35.60
25512;DHT22;13414;44.534;18.700;2022-07-23T14:22:55;37.70;35.30
25512;DHT22;13414;44.534;18.700;2022-07-23T14:25:28;37.60;36.00
25512;DHT22;13414;44.534;18.700;2022-07-23T14:27:56;37.60;35.40
25512;DHT22;13414;44.534;18.700;2022-07-23T14:30:23;37.50;35.70
25512;DHT22;13414;44.534;18.700;2022-07-23T14:32:51;37.50;35.50
25512;DHT22;13414;44.534;18.700;2022-07-23T14:35:18;37.60;35.80
25512;DHT22;13414;44.534;18.700;2022-07-23T14:37:46;37.60;35.50
25512;DHT22;13414;44.534;18.700;2022-07-23T14:40:13;37.70;35.40
25512;DHT22;13414;44.534;18.700;2022-07-23T14:42:42;37.70;35.10
25512;DHT22;13414;44.534;18.700;2022-07-23T14:45:10;37.60;35.50
25512;DHT22;13414;44.534;18.700;2022-07-23T14:47:37;37.50;35.60
25512;DHT22;13414;44.534;18.700;2022-07-23T14:50:05;37.50;37.00
25512;DHT22;13414;44.534;18.700;2022-07-23T14:52:33;37.60;37.40
25512;DHT22;13414;44.534;18.700;2022-07-23T14:55:00;37.50;39.30
25512;DHT22;13414;44.534;18.700;2022-07-23T14:57:28;37.40;40.40
25512;DHT22;13414;44.534;18.700;2022-07-23T14:59:57;37.30;40.90
25512;DHT22;13414;44.534;18.700;2022-07-23T15:02:25;37.30;41.10
25512;DHT22;13414;44.534;18.700;2022-07-23T15:04:52;37.20;40.90
25512;DHT22;13414;44.534;18.700;2022-07-23T15:07:20;37.10;41.10
25512;DHT22;13414;44.534;18.700;2022-07-23T15:09:47;37.10;40.40
25512;DHT22;13414;44.534;18.700;2022-07-23T15:12:14;37.10;40.50
25512;DHT22;13414;44.534;18.700;2022-07-23T15:14:42;37.10;40.50
25512;DHT22;13414;44.534;18.700;2022-07-23T15:17:10;37.10;40.40
25512;DHT22;13414;44.534;18.700;2022-07-23T15:19:38;36.90;40.30
25512;DHT22;13414;44.534;18.700;2022-07-23T15:22:05;36.80;40.50
25512;DHT22;13414;44.534;18.700;2022-07-23T15:24:32;36.90;40.90
25512;DHT22;13414;44.534;18.700;2022-07-23T15:27:00;36.80;40.80
25512;DHT22;13414;44.534;18.700;2022-07-23T15:29:27;36.90;41.20
25512;DHT22;13414;44.534;18.700;2022-07-23T15:31:54;36.90;40.70
25512;DHT22;13414;44.534;18.700;2022-07-23T15:34:23;36.80;40.70
25512;DHT22;13414;44.534;18.700;2022-07-23T15:36:51;36.60;40.70
25512;DHT22;13414;44.534;18.700;2022-07-23T15:39:18;36.50;40.60